createdAt,value
2022-11-19T00:04:08.141Z,7.92
2022-11-19T00:09:14.417Z,7.85
2022-11-19T00:14:16.984Z,7.80
2022-11-19T00:19:19.970Z,7.77
2022-11-19T00:24:22.789Z,7.78
2022-11-19T00:29:25.436Z,7.90
2022-11-19T00:34:27.915Z,8.07
2022-11-19T00:39:30.349Z,8.11
2022-11-19T00:44:37.165Z,7.93
2022-11-19T00:49:39.882Z,7.81
2022-11-19T00:54:42.489Z,7.83
2022-11-19T00:59:45.174Z,7.83
2022-11-19T01:04:50.062Z,7.84
2022-11-19T01:09:52.404Z,7.82
2022-11-19T01:14:54.742Z,7.72
2022-11-19T01:19:57.507Z,7.64
2022-11-19T01:25:00.203Z,7.57
2022-11-19T01:30:02.711Z,7.62
2022-11-19T01:35:08.075Z,7.55
2022-11-19T01:40:11.991Z,7.57
2022-11-19T01:45:37.350Z,7.91
2022-11-19T01:50:48.708Z,7.82
2022-11-19T01:55:51.733Z,7.60
2022-11-19T02:00:54.110Z,7.57
2022-11-19T02:05:56.801Z,7.53
2022-11-19T02:11:17.647Z,7.69
2022-11-19T02:16:20.200Z,7.50
2022-11-19T02:21:37.889Z,7.72
2022-11-19T02:27:02.089Z,7.83
2022-11-19T02:32:16.037Z,7.59
2022-11-19T02:37:26.780Z,7.41
2022-11-19T02:42:38.592Z,7.36
2022-11-19T02:48:25.227Z,7.32
2022-11-19T02:53:27.757Z,7.32
2022-11-19T02:58:51.527Z,7.30
2022-11-19T03:04:13.378Z,7.49
2022-11-19T03:09:16.858Z,7.70
2022-11-19T03:14:57.923Z,7.84
2022-11-19T03:20:34.194Z,8.24
2022-11-19T03:25:45.493Z,8.31
2022-11-19T03:30:49.604Z,7.99
2022-11-19T03:35:58.752Z,7.94
2022-11-19T03:41:03.812Z,7.82
2022-11-19T03:46:10.998Z,7.65
2022-11-19T03:51:15.982Z,7.88
2022-11-19T03:56:24.495Z,8.29
2022-11-19T04:01:26.962Z,8.35
2022-11-19T04:06:29.537Z,8.35
2022-11-19T04:11:31.955Z,8.41
2022-11-19T04:16:36.492Z,8.34
2022-11-19T04:21:38.964Z,8.29
2022-11-19T04:26:42.659Z,8.09
2022-11-19T04:31:45.358Z,8.12
2022-11-19T04:36:47.918Z,8.02
2022-11-19T04:41:50.289Z,7.95
2022-11-19T04:46:52.728Z,7.89
2022-11-19T04:51:55.130Z,7.85
2022-11-19T04:56:57.494Z,7.81
2022-11-19T05:02:00.013Z,7.82
2022-11-19T05:07:02.654Z,7.91
2022-11-19T05:12:05.543Z,7.68
2022-11-19T05:17:08.038Z,7.64
2022-11-19T05:22:10.511Z,7.68
2022-11-19T05:27:13.130Z,7.65
2022-11-19T05:32:15.800Z,7.62
2022-11-19T05:37:18.135Z,7.61
2022-11-19T05:42:20.502Z,7.60
2022-11-19T05:47:22.942Z,7.61
2022-11-19T05:52:25.494Z,7.61
2022-11-19T05:57:27.965Z,7.51
2022-11-19T06:02:30.339Z,7.51
2022-11-19T06:07:32.951Z,7.57
2022-11-19T06:12:35.510Z,7.86
2022-11-19T06:17:38.009Z,8.01
2022-11-19T06:22:41.510Z,7.95
2022-11-19T06:27:44.248Z,8.02
2022-11-19T06:32:46.731Z,7.89
2022-11-19T06:37:49.335Z,7.98
2022-11-19T06:42:54.522Z,8.06
2022-11-19T06:47:56.928Z,8.19
2022-11-19T06:52:59.329Z,8.04
2022-11-19T06:58:06.396Z,7.88
2022-11-19T07:03:08.826Z,7.77
2022-11-19T07:08:11.268Z,7.71
2022-11-19T07:13:14.031Z,7.65
2022-11-19T07:18:16.522Z,7.53
2022-11-19T07:23:23.305Z,7.55
2022-11-19T07:28:25.670Z,7.57
2022-11-19T07:33:28.411Z,7.65
2022-11-19T07:38:36.633Z,7.67
2022-11-19T07:43:39.443Z,7.71
2022-11-19T07:48:44.810Z,7.76
2022-11-19T07:53:47.310Z,7.84
2022-11-19T07:58:49.752Z,7.92
2022-11-19T08:03:56.602Z,7.93
2022-11-19T08:09:00.268Z,7.95
2022-11-19T08:14:02.732Z,8.04
2022-11-19T08:19:13.402Z,8.10
2022-11-19T08:24:20.799Z,8.18
2022-11-19T08:29:23.886Z,8.38
2022-11-19T08:34:26.350Z,8.33
2022-11-19T08:39:29.831Z,8.25
2022-11-19T08:44:32.218Z,8.22
2022-11-19T08:49:34.570Z,8.27
2022-11-19T08:54:37.155Z,8.47
2022-11-19T08:59:39.472Z,8.61
2022-11-19T09:04:45.045Z,8.73
2022-11-19T09:09:47.492Z,8.89
2022-11-19T09:14:50.684Z,9.10
2022-11-19T09:19:53.046Z,9.35
2022-11-19T09:24:55.483Z,9.31
2022-11-19T09:29:57.910Z,9.64
2022-11-19T09:35:00.747Z,9.75
2022-11-19T09:40:04.813Z,9.49
2022-11-19T09:45:16.353Z,9.25
2022-11-19T09:50:35.559Z,9.21
2022-11-19T09:55:46.868Z,9.15
2022-11-19T10:00:49.347Z,9.20
2022-11-19T10:05:54.748Z,9.23
2022-11-19T10:11:18.829Z,9.28
2022-11-19T10:16:32.374Z,9.47
2022-11-19T10:21:56.991Z,9.63
2022-11-19T10:27:08.497Z,9.92
2022-11-19T10:32:35.828Z,10.14
2022-11-19T10:37:48.780Z,10.34
2022-11-19T10:43:08.207Z,10.39
2022-11-19T10:48:23.812Z,10.27
2022-11-19T10:53:36.261Z,9.97
2022-11-19T10:58:56.561Z,9.90
2022-11-19T11:04:02.112Z,9.82
2022-11-19T11:09:04.475Z,9.86
2022-11-19T11:14:30.652Z,9.81
2022-11-19T11:19:33.514Z,9.92
2022-11-19T11:24:38.485Z,10.22
2022-11-19T11:29:41.285Z,10.42
2022-11-19T11:34:44.260Z,10.57
2022-11-19T11:39:53.023Z,10.20
2022-11-19T11:45:01.133Z,10.38
2022-11-19T11:50:12.060Z,10.07
2022-11-19T11:55:14.743Z,10.04
2022-11-19T12:00:36.175Z,9.96
2022-11-19T12:05:47.484Z,10.00
2022-11-19T12:11:02.667Z,10.09
2022-11-19T12:16:24.671Z,10.06
2022-11-19T12:21:37.277Z,10.01
2022-11-19T12:26:45.474Z,9.95
2022-11-19T12:31:53.957Z,10.08
2022-11-19T12:37:37.643Z,9.93
2022-11-19T12:42:52.786Z,9.97
2022-11-19T12:48:07.401Z,10.00
2022-11-19T12:53:33.381Z,10.16
2022-11-19T12:58:52.906Z,9.99
2022-11-19T13:04:16.886Z,9.76
2022-11-19T13:09:48.763Z,9.72
2022-11-19T13:14:58.173Z,9.63
2022-11-19T13:20:18.435Z,9.49
2022-11-19T13:25:31.863Z,9.55
2022-11-19T13:30:35.456Z,9.52
2022-11-19T13:36:09.935Z,9.55
2022-11-19T13:41:30.599Z,9.54
2022-11-19T13:46:56.707Z,9.49
2022-11-19T13:52:09.752Z,9.53
2022-11-19T13:57:27.800Z,9.49
2022-11-19T14:02:46.671Z,9.69
2022-11-19T14:08:10.667Z,9.63
2022-11-19T14:13:15.882Z,9.69
2022-11-19T14:18:54.185Z,9.78
2022-11-19T14:24:15.796Z,9.82
2022-11-19T14:29:21.216Z,10.18
2022-11-19T14:34:50.163Z,10.30
2022-11-19T14:40:07.347Z,9.98
2022-11-19T14:45:09.740Z,9.87
2022-11-19T14:50:40.885Z,9.61
2022-11-19T14:55:53.928Z,9.60
2022-11-19T15:01:19.523Z,9.68
2022-11-19T15:06:23.935Z,9.75
2022-11-19T15:12:00.227Z,9.62
2022-11-19T15:17:04.975Z,9.53
2022-11-19T15:22:22.222Z,9.63
2022-11-19T15:28:01.517Z,9.55
2022-11-19T15:33:31.295Z,9.58
2022-11-19T15:38:45.354Z,9.48
2022-11-19T15:43:57.347Z,9.49
2022-11-19T15:49:18.539Z,9.56
2022-11-19T15:54:31.175Z,9.47
2022-11-19T15:59:38.978Z,9.43
2022-11-19T16:04:41.622Z,9.47
2022-11-19T16:09:44.347Z,9.62
2022-11-19T16:15:30.285Z,9.66
2022-11-19T16:20:34.219Z,9.97
2022-11-19T16:25:39.177Z,10.20
2022-11-19T16:30:59.957Z,10.22
2022-11-19T16:36:19.733Z,10.02
2022-11-19T16:41:43.750Z,9.86
2022-11-19T16:46:46.884Z,9.82
2022-11-19T16:51:53.852Z,9.75
2022-11-19T16:56:56.286Z,9.66
2022-11-19T17:02:05.501Z,9.25
2022-11-19T17:07:14.808Z,9.01
2022-11-19T17:12:23.093Z,9.15
2022-11-19T17:17:30.944Z,9.34
2022-11-19T17:22:38.848Z,9.01
2022-11-19T17:27:41.426Z,8.75
2022-11-19T17:32:52.480Z,8.53
2022-11-19T17:37:54.859Z,8.65
2022-11-19T17:43:16.082Z,9.05
2022-11-19T17:48:22.900Z,9.21
2022-11-19T17:53:25.460Z,9.25
2022-11-19T17:58:27.873Z,9.26
2022-11-19T18:03:30.382Z,9.37
2022-11-19T18:08:35.111Z,9.42
2022-11-19T18:13:37.730Z,9.38
2022-11-19T18:18:40.220Z,9.31
2022-11-19T18:23:44.640Z,9.28
2022-11-19T18:28:49.009Z,9.12
2022-11-19T18:33:52.064Z,9.18
2022-11-19T18:38:55.673Z,8.89
2022-11-19T18:44:17.073Z,9.06
2022-11-19T18:49:23.084Z,9.14
2022-11-19T18:54:25.909Z,9.13
2022-11-19T18:59:29.889Z,8.85
2022-11-19T19:04:32.419Z,8.57
2022-11-19T19:09:34.923Z,8.50
2022-11-19T19:14:37.425Z,8.34
2022-11-19T19:19:40.348Z,8.37
2022-11-19T19:24:42.710Z,8.49
2022-11-19T19:29:45.399Z,8.43
2022-11-19T19:34:47.900Z,8.45
2022-11-19T19:39:50.289Z,8.54
2022-11-19T19:44:52.660Z,8.57
2022-11-19T19:49:55.166Z,8.66
2022-11-19T19:54:57.770Z,8.81
2022-11-19T20:00:00.211Z,8.93
2022-11-19T20:05:02.648Z,9.00
2022-11-19T20:10:08.243Z,9.15
2022-11-19T20:15:11.008Z,9.24
2022-11-19T20:20:14.010Z,9.11
2022-11-19T20:25:16.744Z,9.18
2022-11-19T20:30:19.197Z,9.21
2022-11-19T20:35:21.815Z,9.35
2022-11-19T20:40:28.048Z,9.29
2022-11-19T20:45:30.610Z,9.23
2022-11-19T20:50:32.992Z,9.18
2022-11-19T20:55:48.430Z,8.97
2022-11-19T21:01:06.457Z,8.78
2022-11-19T21:06:09.082Z,8.90
2022-11-19T21:11:15.794Z,8.97
2022-11-19T21:16:23.663Z,9.00
2022-11-19T21:21:29.096Z,9.11
2022-11-19T21:26:31.655Z,9.14
2022-11-19T21:31:43.580Z,9.02
2022-11-19T21:36:47.657Z,9.09
2022-11-19T21:41:50.035Z,8.71
2022-11-19T21:46:52.439Z,8.69
2022-11-19T21:51:55.304Z,8.90
2022-11-19T21:57:00.731Z,9.02
2022-11-19T22:02:03.390Z,8.97
2022-11-19T22:07:06.289Z,9.01
2022-11-19T22:12:08.859Z,9.00
2022-11-19T22:17:11.263Z,9.00
2022-11-19T22:22:18.860Z,8.97
2022-11-19T22:27:21.286Z,8.86
2022-11-19T22:32:23.750Z,8.87
2022-11-19T22:37:26.262Z,8.83
2022-11-19T22:42:28.988Z,8.76
2022-11-19T22:47:31.470Z,8.73
2022-11-19T22:52:35.189Z,8.67
2022-11-19T22:57:37.612Z,8.63
2022-11-19T23:02:40.225Z,8.35
2022-11-19T23:07:42.975Z,8.48
2022-11-19T23:13:07.062Z,8.32
2022-11-19T23:18:09.439Z,8.07
2022-11-19T23:23:11.919Z,8.08
2022-11-19T23:28:14.784Z,8.13
2022-11-19T23:33:17.627Z,8.17
2022-11-19T23:38:20.108Z,8.19
2022-11-19T23:43:22.703Z,7.64
2022-11-19T23:48:25.081Z,7.30
2022-11-19T23:53:27.617Z,7.16
2022-11-19T23:58:30.134Z,7.18
